createdAt,value
2023-09-27T00:00:59.379Z,14.13
2023-09-27T00:03:26.189Z,14.06
2023-09-27T00:05:52.932Z,13.94
2023-09-27T00:08:20.426Z,13.94
2023-09-27T00:10:47.345Z,13.88
2023-09-27T00:13:14.046Z,13.88
2023-09-27T00:15:41.266Z,13.81
2023-09-27T00:18:10.668Z,13.81
2023-09-27T00:20:37.575Z,13.75
2023-09-27T00:23:04.615Z,13.63
2023-09-27T00:25:31.452Z,13.56
2023-09-27T00:27:58.125Z,13.38
2023-09-27T00:30:24.714Z,13.38
2023-09-27T00:32:51.438Z,13.44
2023-09-27T00:35:23.206Z,13.25
2023-09-27T00:37:51.660Z,13.25
2023-09-27T00:40:22.226Z,13.13
2023-09-27T00:42:49.463Z,13.19
2023-09-27T00:45:17.982Z,13.19
2023-09-27T00:47:47.453Z,13.31
2023-09-27T00:50:14.553Z,13.19
2023-09-27T00:52:42.954Z,13.06
2023-09-27T00:55:13.182Z,12.94
2023-09-27T00:57:41.228Z,13.00
2023-09-27T01:00:11.469Z,13.06
2023-09-27T01:02:40.214Z,13.06
2023-09-27T01:05:10.292Z,13.06
2023-09-27T01:07:39.799Z,13.13
2023-09-27T01:10:07.929Z,12.94
2023-09-27T01:12:34.938Z,12.88
2023-09-27T01:15:02.081Z,12.88
2023-09-27T01:17:29.110Z,13.00
2023-09-27T01:19:55.943Z,13.13
2023-09-27T01:22:22.538Z,13.19
2023-09-27T01:24:52.568Z,13.44
2023-09-27T01:27:21.005Z,13.25
2023-09-27T01:29:47.752Z,13.13
2023-09-27T01:32:14.453Z,12.94
2023-09-27T01:34:41.138Z,13.13
2023-09-27T01:37:09.844Z,13.13
2023-09-27T01:39:36.572Z,13.13
2023-09-27T01:42:03.269Z,13.13
2023-09-27T01:44:29.957Z,13.00
2023-09-27T01:46:56.627Z,12.94
2023-09-27T01:49:23.218Z,12.94
2023-09-27T01:51:50.471Z,13.00
2023-09-27T01:54:17.118Z,12.94
2023-09-27T01:56:43.728Z,12.88
2023-09-27T01:59:10.408Z,12.88
2023-09-27T02:01:37.203Z,13.00
2023-09-27T02:04:05.340Z,12.94
2023-09-27T02:06:32.344Z,12.81
2023-09-27T02:08:59.007Z,12.81
2023-09-27T02:11:26.799Z,12.88
2023-09-27T02:13:53.946Z,13.00
2023-09-27T02:16:20.819Z,13.13
2023-09-27T02:18:47.475Z,13.06
2023-09-27T02:21:14.549Z,12.94
2023-09-27T02:23:41.313Z,12.94
2023-09-27T02:26:08.036Z,12.75
2023-09-27T02:28:34.696Z,12.75
2023-09-27T02:31:01.425Z,12.75
2023-09-27T02:33:29.000Z,12.63
2023-09-27T02:35:56.293Z,12.69
2023-09-27T02:38:23.191Z,12.81
2023-09-27T02:40:50.015Z,12.81
2023-09-27T02:43:16.697Z,12.81
2023-09-27T02:45:43.913Z,12.63
2023-09-27T02:48:10.674Z,12.50
2023-09-27T02:50:37.660Z,12.50
2023-09-27T02:53:05.468Z,12.38
2023-09-27T02:55:32.186Z,12.38
2023-09-27T02:57:58.783Z,12.44
2023-09-27T03:00:27.800Z,12.50
2023-09-27T03:02:54.544Z,12.56
2023-09-27T03:05:21.484Z,12.50
2023-09-27T03:07:49.532Z,12.38
2023-09-27T03:10:17.065Z,12.31
2023-09-27T03:12:44.199Z,12.25
2023-09-27T03:15:13.279Z,12.38
2023-09-27T03:17:42.238Z,12.38
2023-09-27T03:20:17.345Z,12.13
2023-09-27T03:22:44.898Z,11.94
2023-09-27T03:25:11.656Z,11.94
2023-09-27T03:27:38.298Z,11.81
2023-09-27T03:30:08.430Z,11.88
2023-09-27T03:32:35.184Z,11.88
2023-09-27T03:35:01.950Z,11.94
2023-09-27T03:37:28.551Z,11.88
2023-09-27T03:39:56.892Z,11.81
2023-09-27T03:42:24.506Z,11.69
2023-09-27T03:44:51.584Z,11.81
2023-09-27T03:47:18.526Z,12.00
2023-09-27T03:49:45.216Z,11.94
2023-09-27T03:52:11.785Z,11.88
2023-09-27T03:54:38.429Z,11.81
2023-09-27T03:57:05.317Z,11.75
2023-09-27T03:59:32.010Z,11.88
2023-09-27T04:01:58.950Z,12.00
2023-09-27T04:04:25.741Z,11.88
2023-09-27T04:06:52.777Z,11.88
2023-09-27T04:09:19.332Z,11.69
2023-09-27T04:11:45.901Z,11.81
2023-09-27T04:14:12.818Z,11.81
2023-09-27T04:16:39.531Z,11.94
2023-09-27T04:19:06.101Z,11.94
2023-09-27T04:21:32.815Z,11.94
2023-09-27T04:24:00.882Z,11.94
2023-09-27T04:26:27.981Z,12.06
2023-09-27T04:28:55.374Z,12.13
2023-09-27T04:31:22.522Z,12.13
2023-09-27T04:33:49.402Z,12.19
2023-09-27T04:36:19.174Z,12.00
2023-09-27T04:38:47.060Z,11.94
2023-09-27T04:41:19.032Z,11.88
2023-09-27T04:43:45.800Z,11.81
2023-09-27T04:46:14.845Z,11.81
2023-09-27T04:48:41.580Z,11.81
2023-09-27T04:51:08.255Z,11.69
2023-09-27T04:53:38.188Z,11.56
2023-09-27T04:56:08.727Z,11.63
2023-09-27T04:58:38.405Z,11.69
2023-09-27T05:01:10.479Z,11.50
2023-09-27T05:03:37.289Z,11.63
2023-09-27T05:06:03.916Z,11.50
2023-09-27T05:08:30.932Z,11.50
2023-09-27T05:10:57.733Z,11.44
2023-09-27T05:13:24.651Z,11.44
2023-09-27T05:15:54.311Z,11.38
2023-09-27T05:18:22.300Z,11.31
2023-09-27T05:20:48.937Z,11.38
2023-09-27T05:23:16.034Z,11.38
2023-09-27T05:25:42.772Z,11.44
2023-09-27T05:28:10.319Z,11.38
2023-09-27T05:30:37.446Z,11.44
2023-09-27T05:33:07.577Z,11.44
2023-09-27T05:35:34.690Z,11.38
2023-09-27T05:38:01.664Z,11.44
2023-09-27T05:40:28.547Z,11.50
2023-09-27T05:42:55.203Z,11.38
2023-09-27T05:45:21.894Z,11.44
2023-09-27T05:47:48.590Z,11.56
2023-09-27T05:50:15.557Z,11.63
2023-09-27T05:52:47.214Z,11.81
2023-09-27T05:55:15.542Z,11.75
2023-09-27T05:57:42.279Z,11.88
2023-09-27T06:00:36.292Z,12.13
2023-09-27T06:03:03.143Z,12.19
2023-09-27T06:05:29.944Z,12.44
2023-09-27T06:07:56.564Z,12.38
2023-09-27T06:10:23.664Z,12.44
2023-09-27T06:12:50.322Z,12.38
2023-09-27T06:15:18.644Z,12.44
2023-09-27T06:17:45.538Z,12.50
2023-09-27T06:20:20.773Z,12.50
2023-09-27T06:22:51.539Z,12.56
2023-09-27T06:25:19.379Z,12.56
2023-09-27T06:27:46.436Z,12.69
2023-09-27T06:30:13.669Z,12.69
2023-09-27T06:32:40.688Z,12.75
2023-09-27T06:35:13.902Z,12.94
2023-09-27T06:37:45.956Z,12.88
2023-09-27T06:40:17.738Z,12.94
2023-09-27T06:42:45.422Z,13.00
2023-09-27T06:45:14.081Z,13.13
2023-09-27T06:47:46.974Z,13.19
2023-09-27T06:50:15.150Z,13.25
2023-09-27T06:52:41.994Z,13.38
2023-09-27T06:55:12.091Z,13.50
2023-09-27T06:57:42.171Z,13.50
2023-09-27T07:00:25.388Z,13.50
2023-09-27T07:02:53.594Z,13.56
2023-09-27T07:05:24.109Z,13.56
2023-09-27T07:07:51.973Z,13.63
2023-09-27T07:10:18.608Z,13.75
2023-09-27T07:12:45.318Z,13.75
2023-09-27T07:15:15.358Z,13.81
2023-09-27T07:17:44.796Z,13.88
2023-09-27T07:20:25.796Z,13.94
2023-09-27T07:22:53.407Z,14.00
2023-09-27T07:25:21.537Z,14.06
2023-09-27T07:27:48.927Z,14.19
2023-09-27T07:30:25.906Z,14.25
2023-09-27T07:32:54.851Z,14.31
2023-09-27T07:35:22.802Z,14.38
2023-09-27T07:37:49.488Z,14.50
2023-09-27T07:40:16.683Z,14.63
2023-09-27T07:42:44.652Z,14.88
2023-09-27T07:45:22.458Z,15.06
2023-09-27T07:47:54.219Z,15.25
2023-09-27T07:50:24.190Z,15.19
2023-09-27T07:52:50.930Z,15.38
2023-09-27T07:55:18.855Z,15.38
2023-09-27T07:57:46.852Z,15.50
2023-09-27T08:00:20.042Z,15.56
2023-09-27T08:02:47.295Z,15.75
2023-09-27T08:05:17.645Z,15.81
2023-09-27T08:07:47.709Z,15.94
2023-09-27T08:12:44.632Z,16.06
2023-09-27T08:15:13.770Z,16.19
2023-09-27T08:17:40.945Z,16.31
2023-09-27T08:20:10.855Z,16.44
2023-09-27T08:22:40.646Z,16.56
2023-09-27T08:25:10.408Z,16.75
2023-09-27T08:27:37.917Z,16.94
2023-09-27T08:30:07.376Z,17.06
2023-09-27T08:32:35.775Z,17.31
2023-09-27T08:35:03.705Z,17.50
2023-09-27T08:37:30.385Z,17.69
2023-09-27T08:39:57.306Z,17.81
2023-09-27T08:42:25.302Z,17.94
2023-09-27T08:44:53.889Z,18.06
2023-09-27T08:47:21.514Z,17.88
2023-09-27T08:49:51.061Z,17.94
2023-09-27T08:52:18.654Z,18.06
2023-09-27T08:54:45.268Z,18.00
2023-09-27T08:57:12.985Z,18.00
2023-09-27T08:59:40.367Z,18.13
2023-09-27T09:02:07.885Z,18.19
2023-09-27T09:04:34.587Z,18.19
2023-09-27T09:07:03.029Z,18.25
2023-09-27T09:09:31.684Z,18.31
2023-09-27T09:12:01.857Z,18.69
2023-09-27T09:14:56.205Z,18.63
2023-09-27T09:17:35.338Z,18.38
2023-09-27T09:20:19.124Z,18.31
2023-09-27T09:22:46.809Z,18.31
2023-09-27T09:25:13.393Z,18.25
2023-09-27T09:27:41.244Z,18.31
2023-09-27T09:30:12.582Z,18.38
2023-09-27T09:32:51.507Z,18.56
2023-09-27T09:35:33.571Z,18.69
2023-09-27T09:38:02.676Z,18.69
2023-09-27T09:40:31.047Z,18.63
2023-09-27T09:43:00.340Z,18.63
2023-09-27T09:45:28.146Z,18.75
2023-09-27T09:47:55.058Z,18.88
2023-09-27T09:50:21.921Z,18.81
2023-09-27T09:52:59.681Z,18.88
2023-09-27T09:55:45.607Z,18.81
2023-09-27T09:58:36.007Z,18.88
2023-09-27T10:01:04.582Z,19.00
2023-09-27T10:03:35.370Z,19.31
2023-09-27T10:06:06.358Z,19.38
2023-09-27T10:08:39.674Z,19.50
2023-09-27T10:11:06.627Z,19.56
2023-09-27T10:13:36.450Z,19.44
2023-09-27T10:16:07.129Z,19.44
2023-09-27T10:18:37.764Z,19.44
2023-09-27T10:21:04.466Z,19.50
2023-09-27T10:23:36.298Z,19.56
2023-09-27T10:26:26.409Z,19.69
2023-09-27T10:29:05.814Z,19.69
2023-09-27T10:31:34.367Z,19.81
2023-09-27T10:34:01.111Z,20.06
2023-09-27T10:36:29.724Z,20.19
2023-09-27T10:38:56.417Z,20.19
2023-09-27T10:41:43.632Z,20.38
2023-09-27T10:44:10.424Z,20.31
2023-09-27T10:46:49.861Z,20.38
2023-09-27T10:49:24.121Z,20.50
2023-09-27T10:51:53.472Z,20.50
2023-09-27T10:54:24.687Z,20.56
2023-09-27T10:56:54.899Z,20.56
2023-09-27T10:59:26.761Z,20.81
2023-09-27T11:01:54.643Z,20.69
2023-09-27T11:04:25.419Z,20.44
2023-09-27T11:06:53.299Z,20.56
2023-09-27T11:09:20.807Z,20.44
2023-09-27T11:11:51.678Z,20.31
2023-09-27T11:14:35.147Z,20.25
2023-09-27T11:17:16.789Z,20.75
2023-09-27T11:19:43.613Z,21.00
2023-09-27T11:22:10.937Z,21.19
2023-09-27T11:24:41.786Z,21.88
2023-09-27T11:27:09.370Z,22.00
2023-09-27T11:29:36.759Z,22.38
2023-09-27T11:32:03.589Z,22.75
2023-09-27T11:34:31.355Z,22.44
2023-09-27T11:37:03.993Z,23.00
2023-09-27T11:39:49.553Z,23.00
2023-09-27T11:42:24.408Z,22.56
2023-09-27T11:45:05.415Z,22.75
2023-09-27T11:47:35.623Z,22.50
2023-09-27T11:50:02.498Z,22.56
2023-09-27T11:52:29.125Z,22.31
2023-09-27T11:54:55.739Z,22.50
2023-09-27T11:57:22.353Z,22.56
2023-09-27T11:59:49.059Z,23.00
2023-09-27T12:02:28.102Z,23.31
2023-09-27T12:04:59.242Z,23.13
2023-09-27T12:07:26.456Z,23.06
2023-09-27T12:09:53.400Z,22.69
2023-09-27T12:12:20.055Z,23.00
2023-09-27T12:14:46.623Z,23.06
2023-09-27T12:17:13.882Z,22.69
2023-09-27T12:19:41.076Z,22.94
2023-09-27T12:22:07.717Z,22.94
2023-09-27T12:24:34.370Z,23.06
2023-09-27T12:27:00.968Z,23.19
2023-09-27T12:29:28.058Z,23.13
2023-09-27T12:31:54.769Z,23.13
2023-09-27T12:34:21.493Z,23.38
2023-09-27T12:36:48.796Z,23.63
2023-09-27T12:39:15.994Z,23.19
2023-09-27T12:41:42.942Z,23.19
2023-09-27T12:44:13.653Z,23.19
2023-09-27T12:46:45.938Z,23.44
2023-09-27T12:49:13.035Z,23.31
2023-09-27T12:51:48.830Z,23.50
2023-09-27T12:54:16.266Z,23.44
2023-09-27T12:56:43.787Z,23.25
2023-09-27T12:59:10.521Z,23.31
2023-09-27T13:01:37.683Z,23.25
2023-09-27T13:04:06.952Z,23.56
2023-09-27T13:06:33.854Z,23.50
2023-09-27T13:09:00.529Z,23.31
2023-09-27T13:11:27.181Z,23.38
2023-09-27T13:13:53.789Z,23.56
2023-09-27T13:16:20.438Z,23.25
2023-09-27T13:18:49.551Z,23.19
2023-09-27T13:21:17.018Z,23.06
2023-09-27T13:23:43.699Z,23.31
2023-09-27T13:26:10.426Z,23.50
2023-09-27T13:28:37.059Z,23.69
2023-09-27T13:31:03.688Z,23.63
2023-09-27T13:33:30.454Z,23.69
2023-09-27T13:36:00.994Z,23.50
2023-09-27T13:38:27.896Z,23.38
2023-09-27T13:40:54.551Z,23.31
2023-09-27T13:43:21.417Z,23.19
2023-09-27T13:45:48.483Z,22.88
2023-09-27T13:48:15.325Z,22.63
2023-09-27T13:50:42.037Z,22.38
2023-09-27T13:53:08.799Z,22.25
2023-09-27T13:55:35.506Z,22.19
2023-09-27T13:58:02.144Z,22.06
2023-09-27T14:00:29.218Z,22.00
2023-09-27T14:02:56.385Z,22.00
2023-09-27T14:05:23.221Z,22.06
2023-09-27T14:07:51.101Z,22.13
2023-09-27T14:10:18.248Z,22.25
2023-09-27T14:12:44.820Z,22.44
2023-09-27T14:15:13.066Z,22.38
2023-09-27T14:17:41.370Z,22.38
2023-09-27T14:20:08.441Z,22.31
2023-09-27T14:22:35.566Z,22.44
2023-09-27T14:25:02.486Z,22.50
2023-09-27T14:27:29.408Z,22.50
2023-09-27T14:29:56.142Z,22.38
2023-09-27T14:32:23.569Z,22.19
2023-09-27T14:37:20.289Z,22.06
2023-09-27T14:39:48.520Z,22.19
2023-09-27T14:42:15.229Z,22.00
2023-09-27T14:44:41.808Z,21.81
2023-09-27T14:47:08.697Z,21.69
2023-09-27T14:49:36.513Z,21.63
2023-09-27T14:52:03.249Z,21.38
2023-09-27T14:54:29.880Z,21.31
2023-09-27T14:56:58.457Z,21.25
2023-09-27T14:59:25.110Z,21.13
2023-09-27T15:01:54.217Z,21.06
2023-09-27T15:04:21.155Z,21.06
2023-09-27T15:06:48.044Z,20.94
2023-09-27T15:09:14.721Z,20.94
2023-09-27T15:11:41.352Z,20.88
2023-09-27T15:14:07.900Z,20.81
2023-09-27T15:16:35.532Z,20.63
2023-09-27T15:19:02.440Z,20.69
2023-09-27T15:21:29.043Z,20.63
2023-09-27T15:23:55.808Z,20.56
2023-09-27T15:26:22.644Z,20.44
2023-09-27T15:28:49.236Z,20.31
2023-09-27T15:31:15.843Z,20.44
2023-09-27T15:33:42.474Z,20.50
2023-09-27T15:36:12.979Z,20.50
2023-09-27T15:38:44.469Z,20.44
2023-09-27T15:41:20.061Z,20.38
2023-09-27T15:43:47.651Z,20.31
2023-09-27T15:46:16.576Z,20.19
2023-09-27T15:48:44.426Z,20.25
2023-09-27T15:51:12.957Z,20.19
2023-09-27T15:53:40.810Z,20.19
2023-09-27T15:56:11.458Z,20.13
2023-09-27T15:58:39.609Z,19.88
2023-09-27T16:01:07.940Z,19.88
2023-09-27T16:03:35.856Z,19.69
2023-09-27T16:06:04.961Z,19.69
2023-09-27T16:08:32.101Z,19.81
2023-09-27T16:10:59.176Z,19.69
2023-09-27T16:13:26.281Z,19.50
2023-09-27T16:15:53.323Z,19.50
2023-09-27T16:18:20.926Z,19.50
2023-09-27T16:20:50.456Z,19.50
2023-09-27T16:23:17.521Z,19.69
2023-09-27T16:25:47.520Z,19.69
2023-09-27T16:28:14.400Z,19.50
2023-09-27T16:30:41.992Z,19.56
2023-09-27T16:33:10.914Z,19.50
2023-09-27T16:35:38.771Z,19.44
2023-09-27T16:38:05.507Z,19.50
2023-09-27T16:40:32.443Z,19.69
2023-09-27T16:42:59.856Z,19.88
2023-09-27T16:45:27.832Z,20.00
2023-09-27T16:47:55.379Z,19.75
2023-09-27T16:50:22.057Z,19.88
2023-09-27T16:52:49.438Z,19.94
2023-09-27T16:55:16.590Z,19.94
2023-09-27T16:57:43.271Z,19.94
2023-09-27T17:00:13.274Z,19.88
2023-09-27T17:02:41.226Z,19.63
2023-09-27T17:05:08.678Z,19.50
2023-09-27T17:07:36.615Z,19.44
2023-09-27T17:10:05.499Z,19.31
2023-09-27T17:12:32.994Z,19.00
2023-09-27T17:14:59.840Z,18.75
2023-09-27T17:17:26.928Z,19.06
2023-09-27T17:19:54.772Z,19.00
2023-09-27T17:22:21.554Z,18.69
2023-09-27T17:24:49.299Z,19.06
2023-09-27T17:27:17.904Z,19.00
2023-09-27T17:29:44.626Z,19.13
2023-09-27T17:32:11.379Z,19.13
2023-09-27T17:34:38.070Z,19.00
2023-09-27T17:37:05.354Z,18.88
2023-09-27T17:39:32.139Z,18.69
2023-09-27T17:42:00.318Z,18.75
2023-09-27T17:44:27.301Z,18.88
2023-09-27T17:46:59.920Z,18.94
2023-09-27T17:49:27.355Z,18.75
2023-09-27T17:51:56.791Z,18.69
2023-09-27T17:54:24.468Z,18.50
2023-09-27T17:56:54.228Z,18.13
2023-09-27T17:59:20.926Z,17.94
2023-09-27T18:01:48.381Z,17.94
2023-09-27T18:04:15.160Z,17.88
2023-09-27T18:06:41.792Z,18.06
2023-09-27T18:09:08.561Z,18.06
2023-09-27T18:11:35.180Z,18.19
2023-09-27T18:14:02.015Z,18.06
2023-09-27T18:16:28.986Z,17.81
2023-09-27T18:18:55.961Z,17.75
2023-09-27T18:21:24.663Z,17.88
2023-09-27T18:23:51.874Z,17.56
2023-09-27T18:26:18.831Z,17.38
2023-09-27T18:28:45.916Z,17.38
2023-09-27T18:31:12.924Z,17.44
2023-09-27T18:33:39.714Z,17.81
2023-09-27T18:36:06.967Z,18.06
2023-09-27T18:38:34.081Z,18.00
2023-09-27T18:41:00.756Z,17.94
2023-09-27T18:43:27.462Z,18.25
2023-09-27T18:45:54.276Z,18.31
2023-09-27T18:48:21.346Z,18.06
2023-09-27T18:50:51.379Z,18.06
2023-09-27T18:53:18.873Z,18.00
2023-09-27T18:55:45.626Z,17.81
2023-09-27T18:58:14.718Z,17.63
2023-09-27T19:00:44.945Z,17.44
2023-09-27T19:03:13.701Z,17.25
2023-09-27T19:05:40.902Z,17.31
2023-09-27T19:08:07.622Z,17.56
2023-09-27T19:10:34.493Z,17.81
2023-09-27T19:13:01.331Z,17.81
2023-09-27T19:15:28.015Z,17.94
2023-09-27T19:17:57.856Z,17.75
2023-09-27T19:20:25.768Z,17.75
2023-09-27T19:22:54.086Z,18.00
2023-09-27T19:25:21.645Z,18.31
2023-09-27T19:27:49.228Z,18.25
2023-09-27T19:30:19.549Z,18.25
2023-09-27T19:32:46.477Z,18.19
2023-09-27T19:35:15.267Z,18.25
2023-09-27T19:37:43.166Z,18.13
2023-09-27T19:40:13.780Z,17.94
2023-09-27T19:42:43.751Z,17.94
2023-09-27T19:45:11.308Z,17.94
2023-09-27T19:47:38.143Z,18.00
2023-09-27T19:50:10.221Z,17.88
2023-09-27T19:52:38.831Z,17.56
2023-09-27T19:55:11.911Z,17.31
2023-09-27T19:57:38.661Z,17.31
2023-09-27T20:00:11.871Z,17.31
2023-09-27T20:02:45.483Z,17.38
2023-09-27T20:05:12.420Z,17.56
2023-09-27T20:07:40.585Z,17.75
2023-09-27T20:10:08.245Z,17.81
2023-09-27T20:12:35.156Z,17.50
2023-09-27T20:15:01.893Z,17.25
2023-09-27T20:17:28.641Z,17.38
2023-09-27T20:19:55.569Z,17.56
2023-09-27T20:22:22.437Z,17.25
2023-09-27T20:24:49.147Z,17.19
2023-09-27T20:27:16.348Z,17.56
2023-09-27T20:29:43.206Z,17.75
2023-09-27T20:32:10.023Z,17.81
2023-09-27T20:34:37.083Z,17.75
2023-09-27T20:37:03.769Z,17.56
2023-09-27T20:39:30.513Z,17.81
2023-09-27T20:41:58.000Z,18.00
2023-09-27T20:44:26.011Z,18.31
2023-09-27T20:46:52.686Z,18.31
2023-09-27T20:49:19.296Z,18.38
2023-09-27T20:51:46.079Z,18.44
2023-09-27T20:54:12.775Z,18.50
2023-09-27T20:56:39.515Z,18.38
2023-09-27T20:59:08.944Z,18.38
2023-09-27T21:01:42.188Z,18.56
2023-09-27T21:04:09.071Z,18.56
2023-09-27T21:06:35.852Z,18.63
2023-09-27T21:09:04.271Z,18.75
2023-09-27T21:11:31.436Z,18.88
2023-09-27T21:14:00.522Z,18.81
2023-09-27T21:16:30.323Z,18.81
2023-09-27T21:18:57.844Z,18.88
2023-09-27T21:21:24.956Z,19.00
2023-09-27T21:23:52.946Z,18.88
2023-09-27T21:26:20.865Z,18.81
2023-09-27T21:28:48.088Z,18.81
2023-09-27T21:31:15.011Z,18.88
2023-09-27T21:33:43.140Z,18.81
2023-09-27T21:36:10.208Z,18.81
2023-09-27T21:38:37.363Z,18.94
2023-09-27T21:41:04.722Z,18.75
2023-09-27T21:43:33.501Z,18.94
2023-09-27T21:46:01.576Z,18.94
2023-09-27T21:48:28.365Z,19.06
2023-09-27T21:50:55.038Z,19.19
2023-09-27T21:53:21.810Z,19.19
2023-09-27T21:55:48.490Z,19.25
2023-09-27T21:58:15.207Z,19.13
2023-09-27T22:00:42.841Z,19.13
2023-09-27T22:03:12.658Z,19.06
2023-09-27T22:05:39.699Z,19.06
2023-09-27T22:08:06.548Z,19.25
2023-09-27T22:10:35.909Z,19.31
2023-09-27T22:13:22.158Z,19.31
2023-09-27T22:16:11.337Z,19.38
2023-09-27T22:18:39.183Z,19.44
2023-09-27T22:21:18.447Z,19.50
2023-09-27T22:23:47.082Z,19.56
2023-09-27T22:26:18.293Z,19.56
2023-09-27T22:28:46.934Z,19.50
2023-09-27T22:31:15.391Z,19.44
2023-09-27T22:33:49.845Z,19.13
2023-09-27T22:36:16.496Z,19.38
2023-09-27T22:38:43.669Z,19.38
2023-09-27T22:41:17.018Z,19.44
2023-09-27T22:43:45.207Z,19.31
2023-09-27T22:46:12.162Z,19.31
2023-09-27T22:48:38.870Z,19.19
2023-09-27T22:51:08.996Z,19.25
2023-09-27T22:53:36.832Z,19.19
2023-09-27T22:56:05.946Z,19.13
2023-09-27T22:58:34.799Z,19.13
2023-09-27T23:01:21.680Z,19.13
2023-09-27T23:03:49.004Z,19.13
2023-09-27T23:06:21.664Z,19.13
2023-09-27T23:08:50.430Z,19.13
2023-09-27T23:11:20.466Z,19.06
2023-09-27T23:13:58.720Z,19.13
2023-09-27T23:16:27.940Z,19.13
2023-09-27T23:19:05.296Z,19.06
2023-09-27T23:21:33.318Z,19.06
2023-09-27T23:24:21.703Z,19.13
2023-09-27T23:27:00.680Z,19.25
2023-09-27T23:29:30.734Z,19.19
2023-09-27T23:32:04.675Z,19.00
2023-09-27T23:34:34.689Z,19.00
2023-09-27T23:37:15.681Z,19.19
2023-09-27T23:39:43.983Z,19.06
2023-09-27T23:42:26.736Z,19.19
2023-09-27T23:44:56.278Z,19.06
2023-09-27T23:47:24.948Z,19.06
2023-09-27T23:50:02.043Z,19.00
2023-09-27T23:52:29.596Z,19.00
2023-09-27T23:55:02.908Z,18.94
2023-09-27T23:57:33.029Z,18.94
